UBBN

Nakhchivan Airport

Nakhchivan, Azerbaijan
TAF UBBN 200502Z 2006/2106 VRB04KT 9999 FEW050 BKN100 TX04/2012Z TNM08/2103Z TEMPO 2010/2018 14010KT TEMPO 2022/2106 03006KT
Issued Valid From Valid To
Jan-20 @ 05:02 UTC
(6 hours ago)
Jan-20 @ 06:00 UTC
(5 hours ago)
Jan-21 @ 06:00 UTC
(in 19 hours)
Jan-20 @ 06:00 to Jan-21 @ 06:00
TAF UBBN 200502Z 2006/2106 VRB04KT 9999 FEW050 BKN100 TX04/2012Z TNM08/2103Z
Wind Visibility Clouds
Variable at 4 knots 10,000+ meters
  • Few at 5,000' AGL
  • Broken at 10,000' AGL
Temporary Jan-20 @ 10:00 to Jan-20 @ 18:00
TEMPO 2010/2018 14010KT
Wind
140° at 10 knots
Temporary Jan-20 @ 22:00 to Jan-21 @ 06:00
TEMPO 2022/2106 03006KT
Wind
30° at 6 knots
TAF UBBN 200502Z 2006/2106 VRB04KT 9999 FEW050 BKN100 TX04/2012Z TNM08/2103Z TEMPO 2010/2018 14010KT TEMPO 2022/2106 03006KT
Issued Jan-20 @ 05:02 UTC
(6 hours ago)
Valid From Jan-20 @ 06:00 UTC
(5 hours ago)
Valid To Jan-21 @ 06:00 UTC
(in 19 hours)
Jan-20 @ 06:00 - Jan-21 @ 06:00
Wind Visibility
Variable at 4 knots 10,000+ meters
Clouds
  • Few at 5,000' AGL
  • Broken at 10,000' AGL
Temporary Jan-20 @ 10:00 - Jan-20 @ 18:00
Wind
140° at 10 knots
Temporary Jan-20 @ 22:00 - Jan-21 @ 06:00
Wind
30° at 6 knots